createdAt,value
2024-05-09T00:03:49.244Z,57.46
2024-05-09T00:09:50.929Z,57.87
2024-05-09T00:15:52.614Z,57.64
2024-05-09T00:21:54.257Z,57.69
2024-05-09T00:27:55.891Z,57.42
2024-05-09T00:33:58.049Z,57.63
2024-05-09T00:39:59.748Z,57.92
2024-05-09T00:46:01.371Z,57.80
2024-05-09T00:52:03.206Z,57.96
2024-05-09T00:58:06.515Z,58.18
2024-05-09T01:11:13.997Z,58.34
2024-05-09T01:17:16.130Z,58.55
2024-05-09T01:23:17.880Z,58.49
2024-05-09T01:29:19.661Z,58.85
2024-05-09T01:35:21.452Z,59.09
2024-05-09T01:41:23.144Z,59.08
2024-05-09T01:47:24.901Z,59.71
2024-05-09T01:53:26.616Z,59.99
2024-05-09T01:59:28.639Z,59.82
2024-05-09T02:05:30.484Z,59.67
2024-05-09T02:11:32.618Z,59.84
2024-05-09T02:17:34.458Z,59.69
2024-05-09T02:23:36.272Z,60.00
2024-05-09T02:29:38.001Z,59.95
2024-05-09T02:35:39.912Z,59.97
2024-05-09T02:41:41.582Z,60.41
2024-05-09T02:47:43.491Z,60.12
2024-05-09T02:53:45.245Z,60.04
2024-05-09T02:59:47.768Z,59.99
2024-05-09T03:05:49.465Z,60.25
2024-05-09T03:11:52.025Z,60.23
2024-05-09T03:17:53.844Z,60.54
2024-05-09T03:23:55.613Z,60.47
2024-05-09T03:29:57.243Z,60.41
2024-05-09T03:35:58.880Z,60.79
2024-05-09T03:42:00.551Z,60.85
2024-05-09T03:48:02.360Z,60.67
2024-05-09T03:54:04.196Z,60.86
2024-05-09T04:00:14.438Z,60.61
2024-05-09T04:06:26.193Z,59.64
2024-05-09T04:12:27.862Z,60.73
2024-05-09T04:18:29.538Z,60.71
2024-05-09T04:24:31.175Z,61.18
2024-05-09T04:30:38.394Z,60.71
2024-05-09T04:36:44.575Z,61.48
2024-05-09T04:42:46.340Z,61.68
2024-05-09T04:48:48.067Z,61.00
2024-05-09T04:54:49.745Z,61.71
2024-05-09T05:00:51.380Z,60.67
2024-05-09T05:06:53.049Z,60.85
2024-05-09T05:12:54.674Z,60.80
2024-05-09T05:18:56.308Z,61.55
2024-05-09T05:24:57.927Z,61.62
2024-05-09T05:30:59.625Z,60.43
2024-05-09T05:37:01.276Z,59.52
2024-05-09T05:43:06.370Z,58.54
2024-05-09T05:49:08.152Z,56.88
2024-05-09T05:55:09.793Z,55.55
2024-05-09T06:01:11.399Z,55.95
2024-05-09T06:07:13.074Z,54.81
2024-05-09T06:13:14.764Z,55.06
2024-05-09T06:19:16.435Z,52.43
2024-05-09T06:25:18.121Z,52.29
2024-05-09T06:31:19.669Z,51.23
2024-05-09T06:37:21.358Z,51.35
2024-05-09T06:43:23.236Z,49.47
2024-05-09T06:49:25.001Z,50.19
2024-05-09T06:55:26.720Z,48.26
2024-05-09T07:01:28.440Z,48.04
2024-05-09T07:07:30.059Z,47.53
2024-05-09T07:13:31.663Z,48.64
2024-05-09T07:19:33.468Z,47.71
2024-05-09T07:25:35.162Z,45.03
2024-05-09T07:31:36.761Z,45.10
2024-05-09T07:37:38.556Z,45.00
2024-05-09T07:43:40.127Z,46.01
2024-05-09T07:51:32.267Z,44.27
2024-05-09T07:56:03.634Z,43.44
2024-05-09T08:02:06.417Z,42.71
2024-05-09T08:08:08.210Z,42.25
2024-05-09T08:14:09.823Z,40.88
2024-05-09T08:20:13.225Z,41.37
2024-05-09T08:26:20.296Z,41.12
2024-05-09T08:32:21.938Z,41.12
2024-05-09T08:38:23.677Z,42.39
2024-05-09T08:44:25.353Z,40.71
2024-05-09T08:50:35.471Z,39.42
2024-05-09T08:56:45.541Z,41.51
2024-05-09T09:02:49.548Z,37.48
2024-05-09T09:08:52.509Z,38.91
2024-05-09T09:14:54.095Z,38.49
2024-05-09T09:20:57.193Z,37.16
2024-05-09T09:26:58.885Z,37.43
2024-05-09T09:33:00.592Z,36.27
2024-05-09T09:39:02.771Z,38.37
2024-05-09T09:45:05.935Z,36.59
2024-05-09T09:51:08.611Z,36.07
2024-05-09T09:57:10.440Z,37.76
2024-05-09T10:03:12.430Z,36.27
2024-05-09T10:09:15.223Z,37.19
2024-05-09T10:15:19.710Z,38.43
2024-05-09T10:21:21.373Z,34.40
2024-05-09T10:27:30.466Z,36.72
2024-05-09T10:33:53.112Z,39.75
2024-05-09T10:39:57.673Z,36.35
2024-05-09T10:45:59.744Z,35.64
2024-05-09T10:52:04.082Z,36.39
2024-05-09T10:58:17.184Z,38.37
2024-05-09T11:04:19.095Z,35.05
2024-05-09T11:15:13.873Z,32.58
2024-05-09T11:21:15.514Z,33.32
2024-05-09T11:27:20.912Z,35.46
2024-05-09T11:33:22.600Z,34.99
2024-05-09T11:39:24.434Z,34.23
2024-05-09T11:45:26.094Z,33.40
2024-05-09T11:51:27.857Z,34.23
2024-05-09T11:57:30.285Z,32.70
2024-05-09T12:03:33.016Z,32.60
2024-05-09T12:09:35.100Z,34.17
2024-05-09T12:15:38.186Z,32.64
2024-05-09T12:21:40.551Z,31.90
2024-05-09T12:27:42.261Z,33.79
2024-05-09T12:33:44.556Z,32.61
2024-05-09T12:39:46.366Z,33.25
2024-05-09T12:45:48.071Z,33.03
2024-05-09T12:51:49.871Z,32.71
2024-05-09T12:57:51.635Z,33.46
2024-05-09T13:03:53.487Z,31.85
2024-05-09T13:09:55.370Z,31.50
2024-05-09T13:15:57.229Z,32.31
2024-05-09T13:21:59.041Z,32.17
2024-05-09T13:28:00.903Z,32.71
2024-05-09T13:34:02.777Z,31.11
2024-05-09T13:40:07.119Z,30.93
2024-05-09T13:46:09.252Z,31.20
2024-05-09T13:52:11.055Z,30.80
2024-05-09T13:58:12.956Z,30.54
2024-05-09T14:04:15.065Z,29.74
2024-05-09T14:10:23.242Z,30.58
2024-05-09T14:16:31.288Z,33.05
2024-05-09T14:22:33.047Z,29.98
2024-05-09T14:28:34.782Z,29.51
2024-05-09T14:34:36.506Z,29.44
2024-05-09T14:40:43.003Z,30.89
2024-05-09T14:46:45.960Z,31.44
2024-05-09T14:52:47.988Z,33.35
2024-05-09T14:58:49.765Z,33.31
2024-05-09T15:04:52.323Z,33.02
2024-05-09T15:10:54.163Z,33.51
2024-05-09T15:16:56.034Z,33.50
2024-05-09T15:22:58.202Z,33.94
2024-05-09T15:28:59.934Z,34.59
2024-05-09T15:35:01.556Z,33.78
2024-05-09T15:41:03.260Z,34.02
2024-05-09T15:47:06.434Z,33.78
2024-05-09T15:53:12.062Z,34.86
2024-05-09T15:59:15.890Z,34.69
2024-05-09T16:05:17.707Z,34.41
2024-05-09T16:11:19.735Z,34.80
2024-05-09T16:17:21.438Z,35.16
2024-05-09T16:23:23.093Z,36.20
2024-05-09T16:29:24.763Z,36.47
2024-05-09T16:35:26.417Z,37.00
2024-05-09T16:41:28.208Z,36.54
2024-05-09T16:47:29.990Z,36.53
2024-05-09T16:53:31.652Z,36.80
2024-05-09T16:59:33.425Z,36.92
2024-05-09T17:05:35.867Z,37.68
2024-05-09T17:11:37.904Z,38.01
2024-05-09T17:17:40.211Z,38.54
2024-05-09T17:23:41.799Z,37.55
2024-05-09T17:29:43.465Z,38.46
2024-05-09T17:35:45.123Z,37.60
2024-05-09T17:41:46.801Z,39.03
2024-05-09T17:47:48.570Z,40.01
2024-05-09T17:53:50.195Z,40.11
2024-05-09T17:59:51.822Z,40.29
2024-05-09T18:05:53.508Z,40.70
2024-05-09T18:11:55.218Z,39.58
2024-05-09T18:17:57.099Z,39.90
2024-05-09T18:24:00.154Z,40.01
2024-05-09T18:30:03.226Z,40.46
2024-05-09T18:36:06.266Z,39.33
2024-05-09T18:42:07.918Z,39.99
2024-05-09T18:48:10.209Z,40.15
2024-05-09T18:54:12.651Z,40.81
2024-05-09T19:00:26.642Z,40.99
2024-05-09T19:06:35.825Z,41.58
2024-05-09T19:12:37.625Z,42.21
2024-05-09T19:18:39.443Z,42.46
2024-05-09T19:24:41.237Z,42.90
2024-05-09T19:30:43.330Z,43.32
2024-05-09T19:36:45.243Z,44.04
2024-05-09T19:42:46.891Z,44.18
2024-05-09T19:48:48.730Z,44.73
2024-05-09T19:54:50.605Z,45.22
2024-05-09T20:00:52.341Z,44.98
2024-05-09T20:06:53.998Z,45.89
2024-05-09T20:12:55.653Z,46.17
2024-05-09T20:18:57.539Z,46.72
2024-05-09T20:25:00.797Z,47.05
2024-05-09T20:31:03.174Z,46.80
2024-05-09T20:37:04.873Z,47.12
2024-05-09T20:43:08.450Z,47.31
2024-05-09T20:49:10.365Z,48.20
2024-05-09T20:55:12.244Z,48.38
2024-05-09T21:01:14.026Z,48.55
2024-05-09T21:07:15.791Z,48.85
2024-05-09T21:13:17.579Z,48.98
2024-05-09T21:19:19.612Z,48.88
2024-05-09T21:25:21.375Z,49.51
2024-05-09T21:31:23.122Z,49.80
2024-05-09T21:37:24.776Z,50.27
2024-05-09T21:43:26.460Z,50.25
2024-05-09T21:49:28.211Z,50.37
2024-05-09T21:55:29.875Z,50.80
2024-05-09T22:01:31.579Z,50.89
2024-05-09T22:07:33.310Z,51.21
2024-05-09T22:13:35.416Z,52.30
2024-05-09T22:19:37.209Z,52.17
2024-05-09T22:25:38.952Z,52.91
2024-05-09T22:31:40.663Z,52.91
2024-05-09T22:37:42.350Z,53.11
2024-05-09T22:43:43.987Z,53.23
2024-05-09T22:49:45.779Z,53.89
2024-05-09T22:55:47.435Z,54.26
2024-05-09T23:01:49.078Z,54.30
2024-05-09T23:07:50.792Z,54.77
2024-05-09T23:13:52.367Z,54.58
2024-05-09T23:19:53.987Z,55.27
2024-05-09T23:25:55.577Z,55.10
2024-05-09T23:31:57.129Z,55.62
2024-05-09T23:37:58.779Z,55.51
2024-05-09T23:44:00.372Z,55.97
2024-05-09T23:50:03.792Z,56.02
2024-05-09T23:56:07.298Z,56.11
